createdAt,value
2023-03-21T00:03:42.804Z,99.90
2023-03-21T00:08:48.094Z,99.90
2023-03-21T00:13:53.559Z,99.90
2023-03-21T00:18:59.044Z,99.90
2023-03-21T00:24:04.710Z,99.90
2023-03-21T00:29:10.048Z,99.90
2023-03-21T00:34:20.032Z,99.90
2023-03-21T00:39:23.254Z,99.90
2023-03-21T00:44:28.832Z,99.90
2023-03-21T00:49:34.711Z,99.90
2023-03-21T00:54:39.931Z,99.90
2023-03-21T00:59:45.154Z,99.90
2023-03-21T01:04:51.040Z,99.90
2023-03-21T01:09:56.265Z,99.90
2023-03-21T01:15:01.600Z,99.90
2023-03-21T01:20:07.176Z,99.90
2023-03-21T01:25:22.233Z,99.90
2023-03-21T01:30:23.008Z,99.90
2023-03-21T01:35:27.015Z,99.90
2023-03-21T01:40:34.398Z,99.90
2023-03-21T01:46:08.855Z,99.90
2023-03-21T01:51:14.897Z,99.90
2023-03-21T01:56:25.694Z,99.90
2023-03-21T02:01:35.345Z,99.90
2023-03-21T02:06:49.545Z,99.90
2023-03-21T02:11:56.178Z,99.90
2023-03-21T02:17:19.406Z,99.90
2023-03-21T02:22:27.661Z,99.90
2023-03-21T02:27:36.539Z,99.90
2023-03-21T02:32:53.575Z,99.90
2023-03-21T02:38:08.641Z,99.90
2023-03-21T02:43:36.365Z,99.90
2023-03-21T02:48:50.941Z,99.90
2023-03-21T02:54:28.226Z,99.90
2023-03-21T02:59:11.388Z,99.90
2023-03-21T03:04:26.842Z,99.90
2023-03-21T03:09:40.748Z,99.90
2023-03-21T03:15:02.705Z,99.90
2023-03-21T03:20:15.644Z,99.90
2023-03-21T03:25:23.206Z,99.90
2023-03-21T03:30:27.337Z,99.90
2023-03-21T03:35:31.746Z,99.90
2023-03-21T03:40:49.028Z,99.90
2023-03-21T03:46:00.005Z,99.90
2023-03-21T03:51:17.579Z,99.90
2023-03-21T03:56:25.837Z,99.90
2023-03-21T04:01:31.168Z,99.90
2023-03-21T04:06:36.517Z,99.90
2023-03-21T04:11:41.794Z,99.90
2023-03-21T04:16:47.556Z,99.90
2023-03-21T04:21:53.516Z,99.90
2023-03-21T04:26:58.840Z,99.90
2023-03-21T04:32:04.118Z,99.90
2023-03-21T04:37:11.130Z,99.90
2023-03-21T04:42:21.734Z,99.90
2023-03-21T04:47:27.203Z,99.90
2023-03-21T04:52:32.516Z,99.90
2023-03-21T04:57:38.900Z,99.90
2023-03-21T05:02:44.250Z,99.90
2023-03-21T05:07:50.677Z,99.90
2023-03-21T05:12:56.046Z,99.90
2023-03-21T05:18:02.995Z,99.90
2023-03-21T05:23:09.866Z,99.90
2023-03-21T05:28:18.464Z,99.90
2023-03-21T05:33:23.881Z,99.90
2023-03-21T05:38:29.101Z,99.90
2023-03-21T05:43:34.900Z,99.90
2023-03-21T05:48:40.189Z,99.90
2023-03-21T05:53:45.593Z,99.90
2023-03-21T05:58:50.889Z,99.90
2023-03-21T06:03:56.409Z,99.90
2023-03-21T06:09:01.783Z,99.90
2023-03-21T06:14:07.008Z,99.90
2023-03-21T06:19:12.829Z,99.90
2023-03-21T06:24:19.251Z,99.90
2023-03-21T06:29:24.664Z,99.90
2023-03-21T06:34:30.153Z,99.90
2023-03-21T06:39:43.011Z,99.90
2023-03-21T06:44:49.247Z,99.90
2023-03-21T06:49:54.389Z,99.90
2023-03-21T06:54:59.649Z,99.90
2023-03-21T07:00:05.935Z,99.90
2023-03-21T07:05:11.293Z,99.90
2023-03-21T07:10:16.653Z,99.90
2023-03-21T07:15:22.030Z,99.90
2023-03-21T07:20:27.470Z,99.90
2023-03-21T07:25:32.841Z,99.90
2023-03-21T07:30:38.183Z,99.90
2023-03-21T07:35:43.576Z,99.90
2023-03-21T07:40:49.984Z,99.90
2023-03-21T07:46:00.493Z,99.90
2023-03-21T07:51:06.779Z,99.90
2023-03-21T07:56:12.118Z,99.90
2023-03-21T08:01:18.547Z,99.90
2023-03-21T08:06:25.960Z,99.90
2023-03-21T08:11:32.231Z,99.80
2023-03-21T08:16:38.254Z,99.90
2023-03-21T08:21:43.570Z,99.10
2023-03-21T08:26:48.792Z,99.90
2023-03-21T08:31:54.288Z,99.90
2023-03-21T08:36:59.397Z,99.90
2023-03-21T08:42:05.941Z,99.90
2023-03-21T08:47:11.205Z,99.90
2023-03-21T08:52:16.564Z,99.90
2023-03-21T08:57:23.277Z,99.90
2023-03-21T09:02:28.668Z,99.90
2023-03-21T09:07:36.365Z,99.90
2023-03-21T09:12:41.671Z,99.90
2023-03-21T09:17:48.596Z,99.90
2023-03-21T09:22:54.580Z,99.90
2023-03-21T09:28:02.626Z,99.90
2023-03-21T09:33:09.825Z,99.90
2023-03-21T09:38:15.658Z,99.90
2023-03-21T09:43:52.684Z,99.90
2023-03-21T09:49:14.747Z,99.90
2023-03-21T09:54:38.293Z,99.90
2023-03-21T09:59:53.685Z,99.90
2023-03-21T10:05:01.108Z,99.50
2023-03-21T10:10:07.665Z,97.80
2023-03-21T10:15:16.024Z,97.20
2023-03-21T10:20:30.372Z,96.40
2023-03-21T10:25:41.483Z,97.40
2023-03-21T10:30:59.159Z,97.00
2023-03-21T10:36:13.782Z,97.80
2023-03-21T10:41:20.892Z,97.40
2023-03-21T10:46:28.010Z,95.70
2023-03-21T10:51:39.332Z,96.90
2023-03-21T10:56:50.769Z,96.10
2023-03-21T11:01:58.102Z,92.40
2023-03-21T11:07:09.339Z,94.40
2023-03-21T11:12:17.114Z,90.20
2023-03-21T11:17:25.676Z,91.70
2023-03-21T11:22:33.651Z,92.10
2023-03-21T11:27:40.798Z,92.40
2023-03-21T11:32:46.582Z,92.20
2023-03-21T11:37:54.789Z,89.70
2023-03-21T11:43:05.573Z,87.60
2023-03-21T11:48:14.289Z,83.60
2023-03-21T11:53:31.742Z,80.70
2023-03-21T11:59:04.100Z,80.40
2023-03-21T12:04:48.109Z,82.60
2023-03-21T12:10:14.441Z,81.00
2023-03-21T12:15:22.725Z,73.40
2023-03-21T12:20:58.338Z,78.00
2023-03-21T12:26:24.820Z,79.80
2023-03-21T12:31:55.877Z,78.60
2023-03-21T12:37:23.484Z,80.60
2023-03-21T12:42:40.562Z,82.00
2023-03-21T12:47:51.628Z,81.50
2023-03-21T12:52:59.986Z,82.00
2023-03-21T12:58:14.086Z,82.70
2023-03-21T13:03:45.087Z,82.50
2023-03-21T13:08:58.994Z,83.30
2023-03-21T13:14:17.707Z,83.70
2023-03-21T13:19:44.329Z,84.80
2023-03-21T13:25:01.506Z,85.60
2023-03-21T13:30:22.923Z,85.40
2023-03-21T13:35:39.060Z,87.30
2023-03-21T13:40:53.155Z,88.20
2023-03-21T13:46:04.280Z,87.40
2023-03-21T13:51:12.044Z,89.40
2023-03-21T13:56:20.733Z,90.50
2023-03-21T14:01:43.294Z,89.30
2023-03-21T14:07:03.830Z,90.10
2023-03-21T14:12:33.509Z,89.90
2023-03-21T14:17:36.981Z,90.40
2023-03-21T14:22:44.537Z,88.40
2023-03-21T14:27:54.202Z,88.30
2023-03-21T14:33:02.342Z,88.70
2023-03-21T14:38:09.511Z,87.60
2023-03-21T14:43:14.797Z,88.20
2023-03-21T14:48:20.603Z,87.10
2023-03-21T14:53:34.322Z,85.50
2023-03-21T14:58:42.176Z,85.10
2023-03-21T15:03:48.627Z,87.30
2023-03-21T15:09:00.251Z,85.70
2023-03-21T15:14:08.486Z,86.70
2023-03-21T15:19:16.791Z,87.00
2023-03-21T15:24:27.624Z,88.10
2023-03-21T15:29:37.062Z,88.80
2023-03-21T15:34:42.678Z,88.70
2023-03-21T15:39:49.365Z,89.20
2023-03-21T15:44:57.430Z,87.30
2023-03-21T15:50:05.641Z,88.00
2023-03-21T15:55:28.796Z,89.30
2023-03-21T16:00:42.874Z,87.10
2023-03-21T16:06:08.350Z,87.70
2023-03-21T16:11:28.541Z,88.10
2023-03-21T16:16:34.030Z,89.80
2023-03-21T16:21:39.423Z,90.50
2023-03-21T16:26:49.878Z,91.20
2023-03-21T16:31:55.697Z,92.00
2023-03-21T16:37:01.293Z,92.70
2023-03-21T16:42:06.957Z,93.50
2023-03-21T16:47:20.897Z,94.40
2023-03-21T16:52:26.660Z,95.30
2023-03-21T16:57:32.117Z,96.20
2023-03-21T17:02:37.885Z,97.10
2023-03-21T17:07:45.523Z,98.10
2023-03-21T17:12:51.130Z,99.00
2023-03-21T17:17:56.542Z,99.90
2023-03-21T17:23:01.954Z,99.90
2023-03-21T17:28:07.253Z,99.90
2023-03-21T17:33:12.531Z,99.90
2023-03-21T17:38:18.636Z,99.90
2023-03-21T17:43:23.932Z,99.90
2023-03-21T17:48:30.175Z,99.90
2023-03-21T17:53:35.619Z,99.90
2023-03-21T17:58:40.745Z,99.90
2023-03-21T18:03:46.236Z,99.90
2023-03-21T18:08:54.740Z,99.90
2023-03-21T18:14:14.341Z,99.90
2023-03-21T18:19:07.175Z,99.90
2023-03-21T18:24:12.443Z,99.90
2023-03-21T18:34:26.270Z,99.90
2023-03-21T18:39:31.710Z,99.90
2023-03-21T18:44:37.458Z,99.90
2023-03-21T18:54:50.373Z,99.90
2023-03-21T18:59:55.703Z,99.90
2023-03-21T19:05:01.452Z,99.90
2023-03-21T19:10:17.622Z,99.90
2023-03-21T19:15:17.526Z,99.90
2023-03-21T19:20:22.835Z,99.90
2023-03-21T19:25:28.195Z,99.90
2023-03-21T19:30:37.195Z,99.90
2023-03-21T19:35:44.673Z,99.90
2023-03-21T19:40:52.588Z,99.90
2023-03-21T19:46:00.082Z,99.90
2023-03-21T19:51:26.984Z,99.90
2023-03-21T19:56:22.382Z,99.90
2023-03-21T20:01:22.245Z,99.90
2023-03-21T20:06:27.740Z,99.90
2023-03-21T20:11:33.672Z,99.90
2023-03-21T20:16:43.096Z,99.90
2023-03-21T20:21:52.255Z,99.90
2023-03-21T20:26:53.855Z,99.90
2023-03-21T20:31:59.014Z,99.90
2023-03-21T20:37:06.280Z,99.90
2023-03-21T20:42:11.752Z,99.90
2023-03-21T20:47:17.058Z,99.90
2023-03-21T20:57:29.145Z,99.90
2023-03-21T21:02:34.373Z,99.90
2023-03-21T21:07:40.819Z,99.90
2023-03-21T21:12:46.761Z,99.90
2023-03-21T21:18:08.688Z,99.90
2023-03-21T21:23:00.914Z,99.90
2023-03-21T21:28:08.257Z,99.90
2023-03-21T21:33:22.236Z,99.90
2023-03-21T21:38:29.322Z,99.90
2023-03-21T21:43:34.446Z,99.90
2023-03-21T21:48:41.839Z,99.90
2023-03-21T21:53:48.499Z,99.90
2023-03-21T21:58:54.669Z,99.90
2023-03-21T22:04:01.469Z,99.90
2023-03-21T22:09:07.092Z,99.90
2023-03-21T22:14:12.356Z,99.90
2023-03-21T22:19:17.457Z,99.90
2023-03-21T22:24:22.601Z,99.90
2023-03-21T22:29:28.255Z,99.90
2023-03-21T22:34:33.451Z,99.90
2023-03-21T22:39:38.551Z,99.90
2023-03-21T22:44:43.701Z,99.90
2023-03-21T22:49:48.882Z,99.90
2023-03-21T22:54:53.997Z,99.90
2023-03-21T22:59:59.100Z,99.90
2023-03-21T23:05:04.515Z,99.90
2023-03-21T23:10:12.223Z,99.90
2023-03-21T23:15:17.466Z,99.90
2023-03-21T23:20:22.682Z,99.90
2023-03-21T23:25:29.071Z,99.90
2023-03-21T23:30:34.455Z,99.90
2023-03-21T23:35:39.601Z,99.90
2023-03-21T23:40:44.759Z,99.90
2023-03-21T23:45:51.799Z,99.90
2023-03-21T23:50:57.198Z,99.90
2023-03-21T23:56:02.460Z,99.90
